createdAt,value
2022-07-31T00:02:53.761Z,21.1
2022-07-31T00:22:53.670Z,21.2
2022-07-31T00:42:53.644Z,21.0
2022-07-31T01:02:53.670Z,21.0
2022-07-31T01:22:53.608Z,20.6
2022-07-31T02:02:53.557Z,20.4
2022-07-31T02:22:53.600Z,19.8
2022-07-31T02:42:53.566Z,20.0
2022-07-31T03:02:53.482Z,19.8
2022-07-31T03:22:53.439Z,19.6
2022-07-31T03:42:53.451Z,19.3
2022-07-31T04:02:53.398Z,19.2
2022-07-31T04:22:53.366Z,19.5
2022-07-31T04:42:53.420Z,19.7
2022-07-31T05:02:53.344Z,19.8
2022-07-31T05:22:53.289Z,19.9
2022-07-31T05:42:53.301Z,19.4
2022-07-31T06:02:53.246Z,19.7
2022-07-31T06:22:53.229Z,19.9
2022-07-31T06:42:53.202Z,20.2
2022-07-31T07:02:53.172Z,20.8
2022-07-31T07:22:53.144Z,21.3
2022-07-31T07:42:53.128Z,21.8
2022-07-31T08:22:53.092Z,23.2
2022-07-31T08:42:53.038Z,23.8
2022-07-31T09:02:53.010Z,24.8
2022-07-31T09:22:52.992Z,24.9
2022-07-31T10:42:52.911Z,27.3
2022-07-31T11:02:52.858Z,28.3
2022-07-31T11:22:52.843Z,28.6
2022-07-31T11:42:52.855Z,28.5
2022-07-31T12:02:52.776Z,28.5
2022-07-31T13:22:52.681Z,30.5
2022-07-31T14:42:52.590Z,31.7
2022-07-31T15:42:52.568Z,31.4
2022-07-31T16:02:52.541Z,30.8
2022-07-31T17:02:52.409Z,30.6
2022-07-31T17:22:52.373Z,30.4
2022-07-31T18:22:52.325Z,29.2
2022-07-31T19:22:52.215Z,27.7
2022-07-31T19:42:52.255Z,27.2
2022-07-31T20:02:52.156Z,26.7
2022-07-31T20:22:52.147Z,25.9
2022-07-31T20:42:52.173Z,25.3
2022-07-31T21:02:52.130Z,25.3
2022-07-31T21:22:52.064Z,24.4
2022-07-31T21:42:52.141Z,24.5
2022-07-31T22:02:52.075Z,24.4
2022-07-31T22:22:52.049Z,24.4
2022-07-31T22:42:52.030Z,24.2
2022-07-31T23:02:52.014Z,23.7
2022-07-31T23:42:51.883Z,23.1
